createdAt,value
2023-04-15T00:00:18.697Z,7.07
2023-04-15T00:01:18.751Z,7.05
2023-04-15T00:02:18.972Z,7.04
2023-04-15T00:03:19.207Z,7.04
2023-04-15T00:04:19.055Z,7.04
2023-04-15T00:05:19.101Z,7.04
2023-04-15T00:06:19.144Z,7.02
2023-04-15T00:07:19.259Z,7.04
2023-04-15T00:08:19.352Z,7.04
2023-04-15T00:09:19.425Z,7.02
2023-04-15T00:10:19.496Z,7.02
2023-04-15T00:11:19.559Z,7.01
2023-04-15T00:12:19.622Z,7.02
2023-04-15T00:13:19.850Z,7.01
2023-04-15T00:14:19.801Z,7.01
2023-04-15T00:15:19.917Z,7.01
2023-04-15T00:16:20.035Z,7.02
2023-04-15T00:17:20.163Z,7.02
2023-04-15T00:18:20.153Z,7.02
2023-04-15T00:19:20.262Z,7.02
2023-04-15T00:20:20.313Z,7.04
2023-04-15T00:21:20.408Z,7.04
2023-04-15T00:22:20.507Z,7.02
2023-04-15T00:23:20.611Z,7.04
2023-04-15T00:24:20.654Z,7.04
2023-04-15T00:25:20.776Z,7.05
2023-04-15T00:26:20.806Z,7.04
2023-04-15T00:27:20.917Z,7.04
2023-04-15T00:28:21.010Z,7.05
2023-04-15T00:29:21.065Z,7.04
2023-04-15T00:30:21.134Z,7.05
2023-04-15T00:31:21.316Z,7.05
2023-04-15T00:32:21.352Z,7.05
2023-04-15T00:33:21.479Z,7.07
2023-04-15T00:34:21.496Z,7.08
2023-04-15T00:35:21.633Z,7.07
2023-04-15T00:36:21.652Z,7.07
2023-04-15T00:37:21.767Z,7.07
2023-04-15T00:38:21.825Z,7.09
2023-04-15T00:39:21.895Z,7.09
2023-04-15T00:40:21.935Z,7.13
2023-04-15T00:41:22.030Z,7.15
2023-04-15T00:42:22.128Z,7.15
2023-04-15T00:43:22.302Z,7.15
2023-04-15T00:44:22.267Z,7.16
2023-04-15T00:45:22.351Z,7.16
2023-04-15T00:46:22.462Z,7.15
2023-04-15T00:47:22.645Z,7.15
2023-04-15T00:48:22.588Z,7.13
2023-04-15T00:49:22.662Z,7.12
2023-04-15T00:50:22.714Z,7.12
2023-04-15T00:51:22.827Z,7.13
2023-04-15T00:52:22.906Z,7.13
2023-04-15T00:53:23.035Z,7.12
2023-04-15T00:54:23.099Z,7.13
2023-04-15T00:55:23.186Z,7.15
2023-04-15T00:56:23.253Z,7.13
2023-04-15T00:57:23.333Z,7.16
2023-04-15T00:58:23.538Z,7.15
2023-04-15T00:59:23.521Z,7.15
2023-04-15T01:00:23.606Z,7.13
2023-04-15T01:01:23.745Z,7.12
2023-04-15T01:02:24.020Z,7.13
2023-04-15T01:03:23.998Z,7.13
2023-04-15T01:04:24.050Z,7.13
2023-04-15T01:05:24.018Z,7.13
2023-04-15T01:06:24.123Z,7.16
2023-04-15T01:07:24.194Z,7.15
2023-04-15T01:08:24.339Z,7.16
2023-04-15T01:09:24.361Z,7.17
2023-04-15T01:10:24.427Z,7.16
2023-04-15T01:11:24.502Z,7.19
2023-04-15T01:12:24.611Z,7.19
2023-04-15T01:13:24.702Z,7.20
2023-04-15T01:14:24.769Z,7.20
2023-04-15T01:15:24.869Z,7.22
2023-04-15T01:16:24.999Z,7.23
2023-04-15T01:17:25.101Z,7.22
2023-04-15T01:18:25.196Z,7.23
2023-04-15T01:19:25.181Z,7.23
2023-04-15T01:20:25.313Z,7.23
2023-04-15T01:21:25.373Z,7.23
2023-04-15T01:22:25.442Z,7.23
2023-04-15T01:23:25.547Z,7.23
2023-04-15T01:24:25.607Z,7.20
2023-04-15T01:25:25.688Z,7.20
2023-04-15T01:26:25.790Z,7.19
2023-04-15T01:27:25.877Z,7.19
2023-04-15T01:28:25.995Z,7.20
2023-04-15T01:29:26.057Z,7.19
2023-04-15T01:30:26.118Z,7.19
2023-04-15T01:31:26.303Z,7.16
2023-04-15T01:32:26.298Z,7.16
2023-04-15T01:33:26.454Z,7.16
2023-04-15T01:34:26.433Z,7.16
2023-04-15T01:35:26.539Z,7.15
2023-04-15T01:36:26.644Z,7.15
2023-04-15T01:37:26.697Z,7.13
2023-04-15T01:38:26.767Z,7.13
2023-04-15T01:39:26.864Z,7.15
2023-04-15T01:40:26.932Z,7.15
2023-04-15T01:41:26.996Z,7.12
2023-04-15T01:42:27.050Z,7.13
2023-04-15T01:43:27.174Z,7.12
2023-04-15T01:44:27.232Z,7.12
2023-04-15T01:45:27.294Z,7.12
2023-04-15T01:46:27.400Z,7.12
2023-04-15T01:47:27.479Z,7.09
2023-04-15T01:48:27.592Z,7.09
2023-04-15T01:49:27.650Z,7.08
2023-04-15T01:50:27.703Z,7.09
2023-04-15T01:51:27.790Z,7.09
2023-04-15T01:52:27.869Z,7.09
2023-04-15T01:53:27.955Z,7.08
2023-04-15T01:54:27.995Z,7.09
2023-04-15T01:55:28.100Z,7.07
2023-04-15T01:56:28.216Z,7.08
2023-04-15T01:57:28.281Z,7.07
2023-04-15T01:58:28.396Z,7.05
2023-04-15T01:59:37.550Z,7.04
2023-04-15T02:00:28.539Z,7.05
2023-04-15T02:01:28.695Z,7.04
2023-04-15T02:02:28.799Z,7.02
2023-04-15T02:03:28.823Z,7.04
2023-04-15T02:04:28.839Z,7.02
2023-04-15T02:05:28.967Z,7.02
2023-04-15T02:06:29.031Z,7.04
2023-04-15T02:07:29.148Z,7.02
2023-04-15T02:08:29.211Z,7.04
2023-04-15T02:09:29.247Z,7.02
2023-04-15T02:10:29.335Z,7.02
2023-04-15T02:11:29.446Z,7.02
2023-04-15T02:12:29.481Z,7.04
2023-04-15T02:13:29.619Z,7.04
2023-04-15T02:14:29.676Z,7.04
2023-04-15T02:15:29.817Z,7.04
2023-04-15T02:16:29.934Z,7.01
2023-04-15T02:17:30.004Z,7.01
2023-04-15T02:18:30.054Z,7.01
2023-04-15T02:19:30.121Z,6.98
2023-04-15T02:20:30.194Z,6.99
2023-04-15T02:21:30.262Z,6.97
2023-04-15T02:22:30.350Z,6.94
2023-04-15T02:23:30.442Z,6.91
2023-04-15T02:24:30.505Z,6.87
2023-04-15T02:25:30.562Z,6.86
2023-04-15T02:26:30.662Z,6.83
2023-04-15T02:27:30.747Z,6.80
2023-04-15T02:28:30.827Z,6.76
2023-04-15T02:29:30.909Z,6.72
2023-04-15T02:30:31.013Z,6.71
2023-04-15T02:31:31.090Z,6.68
2023-04-15T02:32:31.222Z,6.66
2023-04-15T02:33:31.328Z,6.65
2023-04-15T02:34:31.316Z,6.62
2023-04-15T02:35:31.468Z,6.61
2023-04-15T02:36:31.540Z,6.61
2023-04-15T02:37:31.611Z,6.59
2023-04-15T02:38:31.680Z,6.56
2023-04-15T02:39:31.741Z,6.56
2023-04-15T02:40:31.826Z,6.53
2023-04-15T02:41:31.899Z,6.53
2023-04-15T02:42:31.980Z,6.48
2023-04-15T02:43:32.085Z,6.47
2023-04-15T02:44:32.171Z,6.44
2023-04-15T02:45:32.236Z,6.41
2023-04-15T02:46:32.354Z,6.40
2023-04-15T02:47:32.488Z,6.36
2023-04-15T02:48:32.483Z,6.36
2023-04-15T02:49:32.548Z,6.35
2023-04-15T02:50:32.616Z,6.35
2023-04-15T02:51:32.715Z,6.35
2023-04-15T02:52:32.786Z,6.35
2023-04-15T02:53:32.876Z,6.35
2023-04-15T02:54:32.953Z,6.33
2023-04-15T02:55:33.056Z,6.33
2023-04-15T02:56:33.135Z,6.32
2023-04-15T02:57:33.243Z,6.32
2023-04-15T02:58:33.326Z,6.33
2023-04-15T02:59:33.363Z,6.32
2023-04-15T03:00:33.480Z,6.35
2023-04-15T03:01:33.613Z,6.35
2023-04-15T03:02:33.714Z,6.35
2023-04-15T03:03:33.812Z,6.35
2023-04-15T03:04:33.832Z,6.38
2023-04-15T03:05:33.911Z,6.38
2023-04-15T03:06:33.975Z,6.36
2023-04-15T03:07:34.079Z,6.35
2023-04-15T03:08:34.211Z,6.35
2023-04-15T03:09:34.198Z,6.33
2023-04-15T03:10:34.276Z,6.33
2023-04-15T03:11:36.395Z,6.35
2023-04-15T03:12:34.451Z,6.32
2023-04-15T03:13:34.593Z,6.32
2023-04-15T03:14:34.626Z,6.32
2023-04-15T03:15:34.743Z,6.30
2023-04-15T03:16:34.784Z,6.32
2023-04-15T03:17:34.889Z,6.33
2023-04-15T03:18:34.936Z,6.32
2023-04-15T03:19:34.993Z,6.32
2023-04-15T03:20:35.128Z,6.32
2023-04-15T03:21:35.145Z,6.32
2023-04-15T03:22:35.202Z,6.32
2023-04-15T03:23:35.317Z,6.32
2023-04-15T03:24:35.375Z,6.30
2023-04-15T03:25:35.499Z,6.29
2023-04-15T03:26:50.768Z,6.29
2023-04-15T03:28:15.533Z,6.29
2023-04-15T03:28:35.763Z,6.28
2023-04-15T03:29:35.815Z,6.26
2023-04-15T03:30:35.937Z,6.26
2023-04-15T03:31:36.066Z,6.26
2023-04-15T03:32:36.123Z,6.26
2023-04-15T03:33:36.217Z,6.25
2023-04-15T03:34:36.199Z,6.26
2023-04-15T03:35:36.332Z,6.22
2023-04-15T03:36:36.381Z,6.25
2023-04-15T03:38:56.859Z,6.19
2023-04-15T03:39:58.000Z,6.14
2023-04-15T03:40:57.932Z,6.13
2023-04-15T03:41:57.996Z,6.10
2023-04-15T03:42:58.110Z,6.10
2023-04-15T03:43:58.178Z,6.06
2023-04-15T03:44:58.290Z,6.06
2023-04-15T03:45:59.708Z,6.06
2023-04-15T03:46:58.443Z,6.04
2023-04-15T03:48:07.303Z,6.04
2023-04-15T03:48:58.667Z,6.03
2023-04-15T03:49:58.698Z,6.01
2023-04-15T03:50:58.773Z,6.01
2023-04-15T03:51:58.945Z,6.00
2023-04-15T03:53:05.449Z,6.01
2023-04-15T03:53:59.065Z,5.98
2023-04-15T03:54:59.083Z,5.95
2023-04-15T03:55:59.175Z,5.92
2023-04-15T03:56:59.277Z,5.93
2023-04-15T03:57:59.312Z,5.93
2023-04-15T03:58:59.649Z,5.93
2023-04-15T03:59:59.501Z,5.93
2023-04-15T04:00:59.588Z,5.91
2023-04-15T04:01:59.704Z,5.92
2023-04-15T04:02:59.939Z,5.92
2023-04-15T04:03:59.996Z,5.92
2023-04-15T04:04:59.945Z,5.91
2023-04-15T04:06:00.001Z,5.89
2023-04-15T04:07:00.137Z,5.89
2023-04-15T04:08:00.176Z,5.86
2023-04-15T04:09:00.549Z,5.86
2023-04-15T04:10:00.322Z,5.85
2023-04-15T04:11:00.391Z,5.86
2023-04-15T04:12:00.483Z,5.85
2023-04-15T04:13:00.592Z,5.83
2023-04-15T04:14:00.684Z,5.83
2023-04-15T04:15:00.755Z,5.82
2023-04-15T04:16:00.894Z,5.82
2023-04-15T04:17:00.914Z,5.81
2023-04-15T04:18:01.047Z,5.81
2023-04-15T04:19:01.336Z,5.81
2023-04-15T04:20:01.173Z,5.77
2023-04-15T04:21:01.269Z,5.78
2023-04-15T04:22:01.326Z,5.81
2023-04-15T04:23:01.429Z,5.77
2023-04-15T04:24:01.541Z,5.78
2023-04-15T04:25:01.580Z,5.77
2023-04-15T04:26:01.653Z,5.77
2023-04-15T04:27:01.760Z,5.77
2023-04-15T04:28:01.834Z,5.75
2023-04-15T04:29:02.189Z,5.75
2023-04-15T04:30:01.965Z,5.77
2023-04-15T04:31:02.077Z,5.75
2023-04-15T04:32:02.153Z,5.77
2023-04-15T04:33:02.242Z,5.77
2023-04-15T04:34:02.320Z,5.77
2023-04-15T04:35:02.413Z,5.77
2023-04-15T04:36:02.465Z,5.77
2023-04-15T04:37:02.579Z,5.78
2023-04-15T04:38:02.629Z,5.77
2023-04-15T04:39:02.997Z,5.78
2023-04-15T04:40:02.832Z,5.78
2023-04-15T04:41:02.914Z,5.81
2023-04-15T04:42:02.998Z,5.81
2023-04-15T04:43:03.066Z,5.82
2023-04-15T04:44:03.155Z,5.83
2023-04-15T04:45:03.230Z,5.83
2023-04-15T04:46:03.351Z,5.86
2023-04-15T04:47:03.381Z,5.86
2023-04-15T04:48:03.511Z,5.88
2023-04-15T04:49:03.760Z,5.89
2023-04-15T04:50:03.598Z,5.89
2023-04-15T04:51:03.745Z,5.89
2023-04-15T04:52:03.786Z,5.91
2023-04-15T04:53:03.872Z,5.89
2023-04-15T04:54:04.000Z,5.89
2023-04-15T04:55:04.020Z,5.91
2023-04-15T04:56:04.086Z,5.91
2023-04-15T04:57:04.201Z,5.91
2023-04-15T04:58:04.260Z,5.91
2023-04-15T04:59:04.362Z,5.92
2023-04-15T05:00:04.414Z,5.92
2023-04-15T05:01:04.574Z,5.93
2023-04-15T05:02:04.698Z,5.95
2023-04-15T05:03:04.849Z,5.95
2023-04-15T05:04:05.095Z,5.98
2023-04-15T05:05:04.823Z,5.98
2023-04-15T05:06:04.880Z,5.98
2023-04-15T05:07:05.008Z,6.00
2023-04-15T05:08:05.056Z,6.01
2023-04-15T05:09:05.152Z,6.01
2023-04-15T05:10:05.220Z,6.03
2023-04-15T05:11:05.332Z,6.03
2023-04-15T05:12:05.388Z,6.03
2023-04-15T05:13:05.481Z,6.04
2023-04-15T05:14:05.564Z,6.06
2023-04-15T05:15:05.625Z,6.07
2023-04-15T05:16:05.746Z,6.06
2023-04-15T05:17:05.862Z,6.07
2023-04-15T05:18:05.991Z,6.07
2023-04-15T05:19:06.041Z,6.07
2023-04-15T05:20:06.062Z,6.10
2023-04-15T05:21:06.170Z,6.10
2023-04-15T05:22:06.264Z,6.10
2023-04-15T05:23:06.343Z,6.09
2023-04-15T05:24:06.405Z,6.11
2023-04-15T05:25:06.492Z,6.09
2023-04-15T05:26:06.545Z,6.09
2023-04-15T05:27:06.665Z,6.09
2023-04-15T05:28:06.744Z,6.09
2023-04-15T05:29:06.834Z,6.07
2023-04-15T05:30:06.885Z,6.06
2023-04-15T05:31:07.072Z,6.06
2023-04-15T05:32:07.083Z,6.06
2023-04-15T05:33:07.148Z,6.03
2023-04-15T05:34:07.208Z,6.03
2023-04-15T05:35:07.264Z,6.03
2023-04-15T05:36:07.374Z,6.03
2023-04-15T05:37:07.432Z,6.03
2023-04-15T05:38:07.494Z,6.03
2023-04-15T05:39:07.593Z,6.03
2023-04-15T05:40:07.648Z,6.01
2023-04-15T05:41:07.768Z,6.01
2023-04-15T05:42:07.813Z,6.04
2023-04-15T05:43:07.926Z,6.04
2023-04-15T05:44:08.006Z,6.04
2023-04-15T05:45:08.070Z,6.04
2023-04-15T05:46:08.160Z,6.07
2023-04-15T05:47:08.217Z,6.04
2023-04-15T05:48:08.306Z,6.06
2023-04-15T05:49:08.418Z,6.06
2023-04-15T05:50:08.519Z,6.06
2023-04-15T05:51:08.579Z,6.04
2023-04-15T05:52:08.645Z,6.04
2023-04-15T05:53:08.753Z,6.01
2023-04-15T05:54:08.814Z,6.03
2023-04-15T05:55:08.921Z,6.03
2023-04-15T05:56:09.025Z,6.01
2023-04-15T05:57:09.083Z,6.01
2023-04-15T05:58:09.136Z,6.01
2023-04-15T05:59:09.252Z,6.00
2023-04-15T06:00:09.353Z,6.01
2023-04-15T06:01:09.401Z,6.03
2023-04-15T06:02:09.461Z,6.01
2023-04-15T06:03:09.668Z,6.03
2023-04-15T06:04:09.672Z,6.03
2023-04-15T06:05:10.112Z,6.03
2023-04-15T06:06:09.873Z,6.04
2023-04-15T06:07:09.895Z,6.06
2023-04-15T06:08:09.980Z,6.06
2023-04-15T06:09:10.081Z,6.06
2023-04-15T06:10:10.125Z,6.07
2023-04-15T06:11:10.254Z,6.09
2023-04-15T06:12:10.316Z,6.09
2023-04-15T06:13:10.351Z,6.09
2023-04-15T06:14:10.467Z,6.10
2023-04-15T06:15:10.547Z,6.11
2023-04-15T06:16:10.666Z,6.13
2023-04-15T06:17:10.719Z,6.13
2023-04-15T06:18:10.807Z,6.14
2023-04-15T06:19:10.912Z,6.14
2023-04-15T06:20:10.991Z,6.14
2023-04-15T06:21:11.122Z,6.16
2023-04-15T06:22:11.165Z,6.18
2023-04-15T06:23:11.276Z,6.18
2023-04-15T06:24:11.322Z,6.18
2023-04-15T06:25:11.438Z,6.22
2023-04-15T06:26:11.538Z,6.22
2023-04-15T06:27:11.615Z,6.25
2023-04-15T06:28:11.657Z,6.26
2023-04-15T06:29:11.768Z,6.26
2023-04-15T06:30:11.832Z,6.29
2023-04-15T06:31:11.970Z,6.30
2023-04-15T06:32:12.002Z,6.32
2023-04-15T06:33:12.056Z,6.33
2023-04-15T06:34:12.165Z,6.35
2023-04-15T06:35:12.271Z,6.38
2023-04-15T06:36:12.352Z,6.38
2023-04-15T06:37:12.415Z,6.40
2023-04-15T06:38:12.493Z,6.41
2023-04-15T06:39:12.600Z,6.43
2023-04-15T06:40:12.672Z,6.44
2023-04-15T06:41:12.778Z,6.46
2023-04-15T06:42:12.820Z,6.47
2023-04-15T06:43:12.925Z,6.48
2023-04-15T06:44:12.972Z,6.50
2023-04-15T06:45:13.094Z,6.50
2023-04-15T06:46:13.182Z,6.54
2023-04-15T06:47:13.256Z,6.54
2023-04-15T06:48:13.335Z,6.58
2023-04-15T06:49:13.426Z,6.59
2023-04-15T06:50:13.488Z,6.62
2023-04-15T06:51:13.613Z,6.65
2023-04-15T06:52:13.620Z,6.66
2023-04-15T06:53:13.796Z,6.66
2023-04-15T06:54:13.791Z,6.66
2023-04-15T06:55:13.917Z,6.68
2023-04-15T06:56:14.000Z,6.69
2023-04-15T06:57:14.116Z,6.69
2023-04-15T06:58:14.169Z,6.72
2023-04-15T06:59:14.239Z,6.76
2023-04-15T07:00:14.298Z,6.76
2023-04-15T07:01:14.497Z,6.73
2023-04-15T07:02:14.505Z,6.73
2023-04-15T07:03:14.597Z,6.76
2023-04-15T07:04:14.609Z,6.73
2023-04-15T07:05:14.705Z,6.76
2023-04-15T07:06:14.785Z,6.76
2023-04-15T07:07:14.841Z,6.76
2023-04-15T07:08:14.901Z,6.77
2023-04-15T07:09:14.997Z,6.77
2023-04-15T07:10:15.090Z,6.77
2023-04-15T07:11:15.254Z,6.79
2023-04-15T07:12:15.273Z,6.79
2023-04-15T07:13:15.369Z,6.80
2023-04-15T07:14:15.495Z,6.80
2023-04-15T07:15:15.489Z,6.79
2023-04-15T07:16:15.659Z,6.79
2023-04-15T07:17:15.661Z,6.80
2023-04-15T07:18:15.768Z,6.80
2023-04-15T07:19:15.807Z,6.83
2023-04-15T07:20:15.917Z,6.83
2023-04-15T07:21:16.054Z,6.86
2023-04-15T07:22:16.082Z,6.86
2023-04-15T07:23:16.200Z,6.89
2023-04-15T07:24:16.246Z,6.87
2023-04-15T07:25:16.364Z,6.87
2023-04-15T07:26:16.453Z,6.90
2023-04-15T07:27:16.510Z,6.94
2023-04-15T07:28:16.548Z,6.94
2023-04-15T07:29:16.663Z,6.97
2023-04-15T07:30:16.720Z,6.97
2023-04-15T07:31:16.888Z,6.97
2023-04-15T07:32:16.872Z,6.98
2023-04-15T07:33:16.963Z,6.98
2023-04-15T07:34:17.034Z,7.01
2023-04-15T07:35:17.103Z,7.01
2023-04-15T07:36:17.169Z,7.01
2023-04-15T07:37:17.286Z,7.02
2023-04-15T07:38:17.354Z,7.02
2023-04-15T07:39:17.451Z,7.05
2023-04-15T07:40:17.505Z,7.07
2023-04-15T07:41:17.610Z,7.07
2023-04-15T07:42:17.699Z,7.07
2023-04-15T07:43:17.818Z,7.07
2023-04-15T07:44:17.911Z,7.07
2023-04-15T07:45:18.017Z,7.08
2023-04-15T07:46:18.127Z,7.08
2023-04-15T07:47:18.194Z,7.09
2023-04-15T07:48:18.275Z,7.12
2023-04-15T07:49:18.401Z,7.15
2023-04-15T07:50:18.445Z,7.17
2023-04-15T07:51:18.520Z,7.17
2023-04-15T07:52:18.590Z,7.19
2023-04-15T07:53:18.649Z,7.19
2023-04-15T07:54:18.776Z,7.20
2023-04-15T07:55:18.827Z,7.22
2023-04-15T07:56:18.942Z,7.23
2023-04-15T07:57:19.014Z,7.22
2023-04-15T07:58:19.144Z,7.23
2023-04-15T07:59:19.133Z,7.24
2023-04-15T08:00:19.232Z,7.27
2023-04-15T08:01:19.285Z,7.29
2023-04-15T08:02:19.410Z,7.32
2023-04-15T08:03:19.499Z,7.35
2023-04-15T08:04:19.752Z,7.38
2023-04-15T08:05:19.695Z,7.42
2023-04-15T08:06:19.680Z,7.44
2023-04-15T08:07:19.808Z,7.47
2023-04-15T08:08:19.865Z,7.50
2023-04-15T08:09:19.978Z,7.52
2023-04-15T08:10:20.056Z,7.50
2023-04-15T08:11:20.122Z,7.52
2023-04-15T08:12:20.165Z,7.50
2023-04-15T08:13:20.271Z,7.50
2023-04-15T08:14:20.393Z,7.53
2023-04-15T08:15:20.465Z,7.55
2023-04-15T08:16:20.551Z,7.55
2023-04-15T08:17:20.644Z,7.56
2023-04-15T08:18:20.718Z,7.56
2023-04-15T08:19:20.798Z,7.56
2023-04-15T08:20:20.954Z,7.58
2023-04-15T08:21:20.957Z,7.59
2023-04-15T08:22:21.992Z,7.60
2023-04-15T08:23:21.116Z,7.62
2023-04-15T08:24:21.250Z,7.67
2023-04-15T08:25:21.331Z,7.74
2023-04-15T08:26:21.411Z,7.77
2023-04-15T08:27:21.493Z,7.78
2023-04-15T08:28:21.538Z,7.84
2023-04-15T08:29:21.612Z,7.89
2023-04-15T08:30:21.675Z,7.90
2023-04-15T08:31:21.764Z,7.90
2023-04-15T08:32:21.842Z,7.90
2023-04-15T08:33:21.884Z,7.90
2023-04-15T08:34:22.005Z,7.90
2023-04-15T08:35:22.057Z,7.92
2023-04-15T08:36:22.136Z,7.92
2023-04-15T08:37:22.216Z,7.93
2023-04-15T08:38:22.313Z,7.93
2023-04-15T08:39:22.441Z,7.96
2023-04-15T08:40:22.492Z,7.94
2023-04-15T08:41:22.550Z,7.96
2023-04-15T08:42:22.686Z,7.96
2023-04-15T08:43:22.739Z,7.97
2023-04-15T08:44:22.893Z,7.97
2023-04-15T08:45:22.908Z,7.99
2023-04-15T08:46:23.001Z,7.99
2023-04-15T08:47:23.190Z,8.02
2023-04-15T08:48:23.131Z,8.02
2023-04-15T08:49:23.244Z,8.02
2023-04-15T08:50:23.286Z,8.04
2023-04-15T08:51:24.563Z,8.07
2023-04-15T08:52:23.475Z,8.08
2023-04-15T08:53:23.585Z,8.10
2023-04-15T08:54:23.678Z,8.10
2023-04-15T08:55:23.733Z,8.11
2023-04-15T08:56:23.906Z,8.12
2023-04-15T08:57:23.931Z,8.15
2023-04-15T08:58:24.052Z,8.17
2023-04-15T08:59:24.162Z,8.18
2023-04-15T09:00:24.233Z,8.20
2023-04-15T09:01:24.316Z,8.22
2023-04-15T09:02:24.494Z,8.26
2023-04-15T09:03:24.544Z,8.28
2023-04-15T09:04:24.623Z,8.32
2023-04-15T09:05:24.660Z,8.36
2023-04-15T09:06:24.753Z,8.40
2023-04-15T09:07:24.783Z,8.47
2023-04-15T09:08:24.896Z,8.50
2023-04-15T09:09:25.002Z,8.55
2023-04-15T09:10:25.047Z,8.62
2023-04-15T09:11:25.144Z,8.65
2023-04-15T09:12:25.289Z,8.68
2023-04-15T09:13:25.325Z,8.69
2023-04-15T09:14:25.422Z,8.72
2023-04-15T09:15:25.460Z,8.73
2023-04-15T09:16:25.622Z,8.76
2023-04-15T09:17:25.649Z,8.78
2023-04-15T09:18:25.688Z,8.78
2023-04-15T09:19:25.781Z,8.79
2023-04-15T09:20:25.872Z,8.78
2023-04-15T09:21:25.927Z,8.83
2023-04-15T09:22:26.040Z,8.83
2023-04-15T09:23:26.074Z,8.87
2023-04-15T09:24:26.204Z,8.90
2023-04-15T09:25:26.285Z,8.91
2023-04-15T09:26:26.334Z,8.94
2023-04-15T09:27:26.423Z,8.94
2023-04-15T09:28:26.519Z,8.99
2023-04-15T09:29:26.618Z,9.02
2023-04-15T09:30:26.656Z,9.04
2023-04-15T09:31:26.793Z,9.09
2023-04-15T09:32:26.863Z,9.13
2023-04-15T09:33:26.909Z,9.18
2023-04-15T09:34:27.045Z,9.24
2023-04-15T09:35:27.081Z,9.27
2023-04-15T09:36:27.171Z,9.32
2023-04-15T09:37:32.304Z,9.38
2023-04-15T09:38:27.358Z,9.42
2023-04-15T09:39:27.507Z,9.46
2023-04-15T09:40:27.575Z,9.52
2023-04-15T09:41:27.618Z,9.56
2023-04-15T09:42:27.728Z,9.61
2023-04-15T09:43:27.833Z,9.66
2023-04-15T09:44:27.915Z,9.68
2023-04-15T09:45:29.646Z,9.71
2023-04-15T09:46:28.095Z,9.76
2023-04-15T09:47:28.162Z,9.79
2023-04-15T09:48:28.215Z,9.83
2023-04-15T09:49:28.396Z,9.86
2023-04-15T09:50:28.388Z,9.88
2023-04-15T09:51:28.490Z,9.85
2023-04-15T09:52:28.802Z,9.85
2023-04-15T09:53:37.746Z,9.83
2023-04-15T09:54:27.752Z,9.83
2023-04-15T09:55:28.877Z,9.82
2023-04-15T09:56:28.897Z,9.82
2023-04-15T09:57:28.998Z,9.83
2023-04-15T09:58:29.045Z,9.86
2023-04-15T09:59:29.088Z,9.85
2023-04-15T10:00:29.204Z,9.86
2023-04-15T10:01:29.309Z,9.85
2023-04-15T10:02:29.423Z,9.85
2023-04-15T10:03:29.614Z,9.86
2023-04-15T10:04:29.540Z,9.86
2023-04-15T10:05:29.866Z,9.88
2023-04-15T10:06:29.656Z,9.88
2023-04-15T10:07:29.733Z,9.91
2023-04-15T10:08:29.811Z,9.94
2023-04-15T10:09:29.855Z,9.96
2023-04-15T10:10:29.971Z,9.99
2023-04-15T10:11:31.633Z,10.00
2023-04-15T10:12:30.193Z,10.01
2023-04-15T10:13:30.169Z,10.04
2023-04-15T10:14:30.246Z,10.07
2023-04-15T10:15:30.413Z,10.06
2023-04-15T10:16:30.440Z,10.06
2023-04-15T10:17:31.797Z,10.06
2023-04-15T10:18:30.569Z,10.07
2023-04-15T10:19:30.671Z,10.09
2023-04-15T10:20:30.827Z,10.10
2023-04-15T10:21:30.867Z,10.12
2023-04-15T10:22:30.963Z,10.14
2023-04-15T10:23:31.036Z,10.14
2023-04-15T10:24:31.127Z,10.15
2023-04-15T10:25:31.248Z,10.17
2023-04-15T10:26:31.273Z,10.18
2023-04-15T10:27:31.335Z,10.19
2023-04-15T10:28:31.450Z,10.22
2023-04-15T10:29:31.538Z,10.28
2023-04-15T10:30:31.643Z,10.26
2023-04-15T10:31:31.679Z,10.33
2023-04-15T10:32:31.801Z,10.36
2023-04-15T10:33:31.861Z,10.40
2023-04-15T10:34:31.933Z,10.43
2023-04-15T10:35:32.031Z,10.44
2023-04-15T10:36:32.088Z,10.46
2023-04-15T10:37:32.254Z,10.51
2023-04-15T10:38:32.414Z,10.47
2023-04-15T10:39:32.356Z,10.52
2023-04-15T10:40:32.522Z,10.52
2023-04-15T10:41:32.636Z,10.51
2023-04-15T10:42:32.576Z,10.52
2023-04-15T10:43:32.637Z,10.52
2023-04-15T10:44:32.700Z,10.51
2023-04-15T10:45:34.784Z,10.52
2023-04-15T10:46:32.887Z,10.52
2023-04-15T10:47:32.982Z,10.52
2023-04-15T10:48:33.020Z,10.51
2023-04-15T10:49:33.060Z,10.52
2023-04-15T10:50:33.137Z,10.53
2023-04-15T10:51:33.233Z,10.53
2023-04-15T10:52:33.328Z,10.53
2023-04-15T10:53:33.397Z,10.55
2023-04-15T10:54:33.529Z,10.56
2023-04-15T10:55:33.703Z,10.56
2023-04-15T10:56:33.706Z,10.58
2023-04-15T10:57:33.813Z,10.62
2023-04-15T10:58:33.876Z,10.65
2023-04-15T10:59:33.924Z,10.63
2023-04-15T11:00:34.005Z,10.65
2023-04-15T11:01:34.128Z,10.66
2023-04-15T11:02:34.480Z,10.65
2023-04-15T11:03:34.509Z,10.66
2023-04-15T11:04:34.429Z,10.66
2023-04-15T11:05:34.397Z,10.66
2023-04-15T11:06:34.520Z,10.66
2023-04-15T11:07:34.587Z,10.66
2023-04-15T11:08:34.743Z,10.65
2023-04-15T11:09:34.778Z,10.65
2023-04-15T11:10:34.852Z,10.63
2023-04-15T11:11:34.954Z,10.65
2023-04-15T11:12:35.035Z,10.65
2023-04-15T11:13:35.084Z,10.66
2023-04-15T11:14:35.177Z,10.66
2023-04-15T11:15:35.279Z,10.66
2023-04-15T11:16:35.429Z,10.68
2023-04-15T11:17:35.454Z,10.66
2023-04-15T11:18:35.549Z,10.68
2023-04-15T11:19:35.609Z,10.68
2023-04-15T11:20:35.709Z,10.66
2023-04-15T11:21:35.798Z,10.70
2023-04-15T11:22:35.845Z,10.73
2023-04-15T11:23:35.956Z,10.73
2023-04-15T11:24:36.046Z,10.76
2023-04-15T11:25:36.143Z,10.77
2023-04-15T11:26:36.224Z,10.77
2023-04-15T11:27:36.313Z,10.76
2023-04-15T11:28:37.444Z,10.76
2023-04-15T11:29:36.452Z,10.77
2023-04-15T11:30:36.536Z,10.78
2023-04-15T11:31:36.697Z,10.78
2023-04-15T11:32:36.683Z,10.80
2023-04-15T11:33:36.751Z,10.81
2023-04-15T11:34:36.823Z,10.86
2023-04-15T11:35:36.961Z,10.89
2023-04-15T11:36:36.975Z,10.94
2023-04-15T11:37:37.016Z,10.96
2023-04-15T11:38:37.109Z,11.01
2023-04-15T11:39:37.222Z,11.02
2023-04-15T11:40:37.264Z,11.03
2023-04-15T11:41:37.349Z,11.03
2023-04-15T11:42:48.596Z,11.03
2023-04-15T11:43:37.485Z,11.02
2023-04-15T11:44:37.591Z,11.03
2023-04-15T11:45:37.811Z,11.02
2023-04-15T11:46:37.742Z,11.06
2023-04-15T11:47:37.824Z,11.03
2023-04-15T11:48:37.882Z,11.02
2023-04-15T11:49:37.966Z,11.02
2023-04-15T11:50:38.021Z,11.02
2023-04-15T11:51:38.128Z,11.02
2023-04-15T11:52:38.193Z,11.01
2023-04-15T11:53:38.304Z,11.02
2023-04-15T11:54:38.404Z,11.01
2023-04-15T11:55:38.496Z,11.01
2023-04-15T11:56:38.583Z,11.01
2023-04-15T11:57:38.613Z,11.01
2023-04-15T11:58:38.708Z,11.01
2023-04-15T12:00:38.894Z,11.01
2023-04-15T12:01:38.984Z,11.02
2023-04-15T12:02:39.198Z,11.03
2023-04-15T12:03:39.247Z,11.02
2023-04-15T12:04:39.376Z,11.02
2023-04-15T12:05:39.318Z,11.03
2023-04-15T12:06:39.379Z,10.99
2023-04-15T12:07:39.484Z,10.98
2023-04-15T12:08:39.627Z,10.98
2023-04-15T12:09:39.678Z,10.96
2023-04-15T12:10:39.744Z,10.96
2023-04-15T12:11:39.844Z,10.95
2023-04-15T12:12:39.906Z,10.95
2023-04-15T12:13:40.037Z,10.95
2023-04-15T12:14:40.112Z,10.94
2023-04-15T12:15:40.222Z,10.92
2023-04-15T12:16:49.149Z,10.92
2023-04-15T12:17:51.694Z,10.92
2023-04-15T12:18:40.412Z,10.92
2023-04-15T12:19:40.478Z,10.92
2023-04-15T12:20:40.552Z,10.94
2023-04-15T12:21:40.657Z,10.96
2023-04-15T12:22:40.726Z,10.96
2023-04-15T12:23:40.810Z,10.99
2023-04-15T12:24:40.867Z,10.99
2023-04-15T12:25:40.954Z,11.01
2023-04-15T12:26:41.001Z,11.06
2023-04-15T12:27:41.073Z,11.06
2023-04-15T12:28:41.150Z,11.07
2023-04-15T12:29:41.216Z,11.10
2023-04-15T12:30:41.274Z,11.10
2023-04-15T12:31:41.456Z,11.11
2023-04-15T12:32:43.458Z,11.14
2023-04-15T12:33:41.589Z,11.14
2023-04-15T12:34:41.653Z,11.17
2023-04-15T12:35:41.735Z,11.17
2023-04-15T12:36:41.800Z,11.19
2023-04-15T12:37:41.970Z,11.19
2023-04-15T12:38:41.999Z,11.20
2023-04-15T12:39:42.086Z,11.20
2023-04-15T12:40:42.132Z,11.24
2023-04-15T12:41:42.225Z,11.24
2023-04-15T12:42:42.293Z,11.25
2023-04-15T12:43:42.419Z,11.27
2023-04-15T12:44:42.469Z,11.25
2023-04-15T12:45:42.518Z,11.25
2023-04-15T12:46:42.646Z,11.24
2023-04-15T12:47:42.770Z,11.24
2023-04-15T12:48:42.788Z,11.24
2023-04-15T12:49:42.862Z,11.25
2023-04-15T12:50:42.943Z,11.27
2023-04-15T12:51:43.009Z,11.27
2023-04-15T12:52:43.093Z,11.29
2023-04-15T12:53:43.204Z,11.31
2023-04-15T12:54:43.239Z,11.34
2023-04-15T12:55:43.331Z,11.35
2023-04-15T12:56:43.398Z,11.36
2023-04-15T12:57:43.565Z,11.41
2023-04-15T12:58:43.620Z,11.44
2023-04-15T12:59:43.671Z,11.49
2023-04-15T13:00:43.770Z,11.53
2023-04-15T13:01:43.865Z,11.57
2023-04-15T13:02:44.149Z,11.62
2023-04-15T13:03:44.201Z,11.67
2023-04-15T13:04:44.156Z,11.71
2023-04-15T13:05:44.222Z,11.70
2023-04-15T13:06:44.289Z,11.68
2023-04-15T13:07:44.338Z,11.70
2023-04-15T13:08:57.466Z,11.70
2023-04-15T13:09:44.511Z,11.72
2023-04-15T13:10:44.592Z,11.74
2023-04-15T13:11:44.676Z,11.78
2023-04-15T13:12:44.727Z,11.80
2023-04-15T13:13:44.881Z,11.83
2023-04-15T13:14:44.944Z,11.87
2023-04-15T13:15:45.056Z,11.90